ΕΜΥ, Εθνική Μετεωρολογική Υπηρεσία - Δελτία Καιρού, Προγνώσεις

ΑΕΡΟΝΑΥΤΙΛΙΑ

GREEK AIRPORTS CODES

LGMK 230850Z 00000KT 9999 SCT010 22/13 Q1021=

EUROPEAN AIRPORTS CODES

LCLK 230900Z 06006KT 9999 FEW020 28/10 Q1019 NOSIG=